createdAt,value
2019-04-29T00:00:07.020Z,0.00
2019-04-29T00:01:07.518Z,0.00
2019-04-29T00:02:07.505Z,0.00
2019-04-29T00:03:07.686Z,0.00
2019-04-29T00:04:07.878Z,0.00
2019-04-29T00:05:08.031Z,0.00
2019-04-29T00:06:08.197Z,0.00
2019-04-29T00:07:08.434Z,0.00
2019-04-29T00:08:08.637Z,0.00
2019-04-29T00:09:08.820Z,0.00
2019-04-29T00:10:09.003Z,0.00
2019-04-29T00:11:09.195Z,0.00
2019-04-29T00:12:09.375Z,0.00
2019-04-29T00:13:09.593Z,0.00
2019-04-29T00:14:09.773Z,0.00
2019-04-29T00:15:09.975Z,0.00
2019-04-29T00:16:10.148Z,0.00
2019-04-29T00:17:10.387Z,0.00
2019-04-29T00:18:10.996Z,0.00
2019-04-29T00:19:10.688Z,0.00
2019-04-29T00:20:10.890Z,0.00
2019-04-29T00:21:11.158Z,0.00
2019-04-29T00:22:11.264Z,0.00
2019-04-29T00:23:11.445Z,0.00
2019-04-29T00:24:11.662Z,0.00
2019-04-29T00:25:11.862Z,0.00
2019-04-29T00:26:12.010Z,0.00
2019-04-29T00:27:12.229Z,0.00
2019-04-29T00:28:12.395Z,0.00
2019-04-29T00:29:12.582Z,0.00
2019-04-29T00:30:12.739Z,0.00
2019-04-29T00:31:12.901Z,0.00
2019-04-29T00:32:13.099Z,0.00
2019-04-29T00:33:13.234Z,0.00
2019-04-29T00:34:14.004Z,0.00
2019-04-29T00:35:13.633Z,0.00
2019-04-29T00:36:13.773Z,0.00
2019-04-29T00:37:13.998Z,0.00
2019-04-29T00:38:14.175Z,0.00
2019-04-29T00:39:14.342Z,0.00
2019-04-29T00:40:14.535Z,0.00
2019-04-29T00:41:14.673Z,0.00
2019-04-29T00:42:14.810Z,0.00
2019-04-29T00:43:14.979Z,0.00
2019-04-29T00:44:16.005Z,0.00
2019-04-29T00:45:15.287Z,0.00
2019-04-29T00:46:15.463Z,0.00
2019-04-29T00:47:15.567Z,0.00
2019-04-29T00:48:15.696Z,0.00
2019-04-29T00:49:15.835Z,0.00
2019-04-29T00:50:16.559Z,0.00
2019-04-29T00:51:16.283Z,0.00
2019-04-29T00:52:16.343Z,0.00
2019-04-29T00:53:16.487Z,0.00
2019-04-29T00:54:17.496Z,0.00
2019-04-29T00:55:16.911Z,0.00
2019-04-29T00:56:17.997Z,0.00
2019-04-29T00:57:17.256Z,0.00
2019-04-29T00:58:17.406Z,0.00
2019-04-29T00:59:18.501Z,0.00
2019-04-29T01:00:17.795Z,0.00
2019-04-29T01:01:17.991Z,0.00
2019-04-29T01:02:18.180Z,0.00
2019-04-29T01:03:18.358Z,0.00
2019-04-29T01:04:18.526Z,0.00
2019-04-29T01:05:18.743Z,0.00
2019-04-29T01:06:18.929Z,0.00
2019-04-29T01:07:19.075Z,0.00
2019-04-29T01:08:19.234Z,0.00
2019-04-29T01:09:19.406Z,0.00
2019-04-29T01:10:19.579Z,0.00
2019-04-29T01:11:19.765Z,0.00
2019-04-29T01:12:19.908Z,0.00
2019-04-29T01:13:20.043Z,0.00
2019-04-29T01:14:20.200Z,0.00
2019-04-29T01:15:20.352Z,0.00
2019-04-29T01:16:20.524Z,0.00
2019-04-29T01:17:20.662Z,0.00
2019-04-29T01:18:20.784Z,0.00
2019-04-29T01:19:20.913Z,0.00
2019-04-29T01:20:21.163Z,0.00
2019-04-29T01:21:21.333Z,0.00
2019-04-29T01:22:21.473Z,0.00
2019-04-29T01:23:21.606Z,0.00
2019-04-29T01:24:21.752Z,0.00
2019-04-29T01:25:21.893Z,0.00
2019-04-29T01:26:22.093Z,0.00
2019-04-29T01:27:23.020Z,0.00
2019-04-29T01:28:22.401Z,0.00
2019-04-29T01:29:23.604Z,0.00
2019-04-29T01:30:22.771Z,0.00
2019-04-29T01:31:22.929Z,0.00
2019-04-29T01:32:23.133Z,0.00
2019-04-29T01:33:24.323Z,0.00
2019-04-29T01:34:23.490Z,0.00
2019-04-29T01:35:23.664Z,0.00
2019-04-29T01:36:23.845Z,0.00
2019-04-29T01:37:24.064Z,0.00
2019-04-29T01:38:24.224Z,0.00
2019-04-29T01:39:25.006Z,0.00
2019-04-29T01:40:24.633Z,0.00
2019-04-29T01:41:25.496Z,0.00
2019-04-29T01:42:25.039Z,0.00
2019-04-29T01:43:26.004Z,0.00
2019-04-29T01:44:25.385Z,0.00
2019-04-29T01:45:25.545Z,0.00
2019-04-29T01:46:25.706Z,0.00
2019-04-29T01:47:25.872Z,0.00
2019-04-29T01:48:26.048Z,0.00
2019-04-29T01:49:26.225Z,0.00
2019-04-29T01:50:26.423Z,0.00
2019-04-29T01:51:26.634Z,0.00
2019-04-29T01:52:26.798Z,0.00
2019-04-29T01:53:26.952Z,0.00
2019-04-29T01:54:27.099Z,0.00
2019-04-29T01:55:27.243Z,0.00
2019-04-29T01:56:27.444Z,0.00
2019-04-29T01:57:27.604Z,0.00
2019-04-29T01:58:27.773Z,0.00
2019-04-29T01:59:28.516Z,0.00
2019-04-29T02:00:29.008Z,0.00
2019-04-29T02:01:28.278Z,0.00
2019-04-29T02:02:28.450Z,0.00
2019-04-29T02:03:28.593Z,0.00
2019-04-29T02:04:28.793Z,0.00
2019-04-29T02:05:29.572Z,0.00
2019-04-29T02:06:29.103Z,0.00
2019-04-29T02:07:29.223Z,0.00
2019-04-29T02:08:29.416Z,0.00
2019-04-29T02:09:30.015Z,0.00
2019-04-29T02:10:29.784Z,0.00
2019-04-29T02:11:29.935Z,0.00
2019-04-29T02:12:30.113Z,0.00
2019-04-29T02:13:30.288Z,0.00
2019-04-29T02:14:30.471Z,0.00
2019-04-29T02:15:30.627Z,0.00
2019-04-29T02:16:30.802Z,0.00
2019-04-29T02:17:31.031Z,0.00
2019-04-29T02:18:31.175Z,0.00
2019-04-29T02:19:31.344Z,0.00
2019-04-29T02:20:31.478Z,0.00
2019-04-29T02:21:31.634Z,0.00
2019-04-29T02:22:31.770Z,0.00
2019-04-29T02:23:32.015Z,0.00
2019-04-29T02:24:32.137Z,0.00
2019-04-29T02:25:32.306Z,0.00
2019-04-29T02:26:32.448Z,0.00
2019-04-29T02:27:33.503Z,0.00
2019-04-29T02:28:32.724Z,0.00
2019-04-29T02:29:33.872Z,0.00
2019-04-29T02:30:33.139Z,0.00
2019-04-29T02:31:33.296Z,0.00
2019-04-29T02:32:33.439Z,0.00
2019-04-29T02:33:33.589Z,0.00
2019-04-29T02:34:33.748Z,0.00
2019-04-29T02:35:33.929Z,0.00
2019-04-29T02:36:34.093Z,0.00
2019-04-29T02:37:34.229Z,0.00
2019-04-29T02:38:34.393Z,0.00
2019-04-29T02:39:34.560Z,0.00
2019-04-29T02:40:35.509Z,0.00
2019-04-29T02:41:34.879Z,0.00
2019-04-29T02:42:35.031Z,0.00
2019-04-29T02:43:35.507Z,0.00
2019-04-29T02:44:35.407Z,0.00
2019-04-29T02:45:35.577Z,0.00
2019-04-29T02:46:35.740Z,0.00
2019-04-29T02:47:35.944Z,0.00
2019-04-29T02:48:36.995Z,0.00
2019-04-29T02:49:36.280Z,0.00
2019-04-29T02:50:36.483Z,0.00
2019-04-29T02:51:36.676Z,0.00
2019-04-29T02:52:36.834Z,0.00
2019-04-29T02:53:36.995Z,0.00
2019-04-29T02:54:38.005Z,0.00
2019-04-29T02:55:37.518Z,0.00
2019-04-29T02:56:37.543Z,0.00
2019-04-29T02:57:37.738Z,0.00
2019-04-29T02:58:37.943Z,0.00
2019-04-29T02:59:38.139Z,0.00
2019-04-29T03:00:38.510Z,0.00
2019-04-29T03:01:38.569Z,0.00
2019-04-29T03:02:38.734Z,0.00
2019-04-29T03:03:39.512Z,0.00
2019-04-29T03:04:39.162Z,0.00
2019-04-29T03:05:40.043Z,0.00
2019-04-29T03:06:40.554Z,0.00
2019-04-29T03:07:40.641Z,0.00
2019-04-29T03:08:40.812Z,0.00
2019-04-29T03:09:39.942Z,0.00
2019-04-29T03:10:41.007Z,0.00
2019-04-29T03:11:40.395Z,0.00
2019-04-29T03:12:40.441Z,0.00
2019-04-29T03:13:41.024Z,0.00
2019-04-29T03:14:40.781Z,0.00
2019-04-29T03:15:41.531Z,0.00
2019-04-29T03:16:41.152Z,0.00
2019-04-29T03:17:41.533Z,0.00
2019-04-29T03:18:41.663Z,0.00
2019-04-29T03:19:41.712Z,0.00
2019-04-29T03:20:41.868Z,0.00
2019-04-29T03:21:42.010Z,0.00
2019-04-29T03:22:42.185Z,0.00
2019-04-29T03:23:42.317Z,4.00
2019-04-29T03:24:43.014Z,0.00
2019-04-29T03:25:42.642Z,4.00
2019-04-29T03:26:42.819Z,4.00
2019-04-29T03:27:42.979Z,4.00
2019-04-29T03:28:43.172Z,4.00
2019-04-29T03:29:44.012Z,0.00
2019-04-29T03:30:43.523Z,4.00
2019-04-29T03:31:43.726Z,4.00
2019-04-29T03:32:43.903Z,4.00
2019-04-29T03:33:44.105Z,8.00
2019-04-29T03:34:44.278Z,4.00
2019-04-29T03:35:44.421Z,8.00
2019-04-29T03:36:44.545Z,8.00
2019-04-29T03:37:44.691Z,8.00
2019-04-29T03:38:44.842Z,12.00
2019-04-29T03:39:44.984Z,12.00
2019-04-29T03:40:46.009Z,12.00
2019-04-29T03:41:46.029Z,12.00
2019-04-29T03:42:45.409Z,12.00
2019-04-29T03:43:45.584Z,16.00
2019-04-29T03:44:45.737Z,20.00
2019-04-29T03:45:45.903Z,24.00
2019-04-29T03:46:46.042Z,28.00
2019-04-29T03:47:46.153Z,32.00
2019-04-29T03:48:46.303Z,40.00
2019-04-29T03:49:46.440Z,44.00
2019-04-29T03:50:46.605Z,48.00
2019-04-29T03:51:47.513Z,52.00
2019-04-29T03:52:47.513Z,64.00
2019-04-29T03:53:46.996Z,68.00
2019-04-29T03:54:47.133Z,76.00
2019-04-29T03:55:47.290Z,88.00
2019-04-29T03:56:48.013Z,100.00
2019-04-29T03:57:47.682Z,112.00
2019-04-29T03:58:47.805Z,120.00
2019-04-29T03:59:47.957Z,136.00
2019-04-29T04:00:48.099Z,152.00
2019-04-29T04:01:48.263Z,168.00
2019-04-29T04:02:48.412Z,184.00
2019-04-29T04:03:48.544Z,204.00
2019-04-29T04:04:48.843Z,224.00
2019-04-29T04:05:48.883Z,244.00
2019-04-29T04:06:49.112Z,264.00
2019-04-29T04:07:49.232Z,292.00
2019-04-29T04:09:04.741Z,320.00
2019-04-29T04:09:51.654Z,348.00
2019-04-29T04:10:49.811Z,380.00
2019-04-29T04:11:50.956Z,412.00
2019-04-29T04:12:50.196Z,444.00
2019-04-29T04:13:50.356Z,480.00
2019-04-29T04:14:51.507Z,520.00
2019-04-29T04:15:50.767Z,564.00
2019-04-29T04:16:50.904Z,616.00
2019-04-29T04:17:51.065Z,668.00
2019-04-29T04:18:51.203Z,724.00
2019-04-29T04:19:51.370Z,780.00
2019-04-29T04:20:51.625Z,840.00
2019-04-29T04:21:51.670Z,896.00
2019-04-29T04:22:52.837Z,960.00
2019-04-29T04:23:51.948Z,1044.00
2019-04-29T04:24:52.091Z,1108.00
2019-04-29T04:25:52.246Z,1180.00
2019-04-29T04:26:52.416Z,1252.00
2019-04-29T04:27:53.019Z,1320.00
2019-04-29T04:28:52.769Z,1400.00
2019-04-29T04:29:52.891Z,1508.00
2019-04-29T04:30:53.014Z,1628.00
2019-04-29T04:31:53.148Z,1752.00
2019-04-29T04:32:53.296Z,1868.00
2019-04-29T04:33:53.444Z,1964.00
2019-04-29T04:34:53.581Z,2036.00
2019-04-29T04:35:54.512Z,2084.00
2019-04-29T04:36:53.870Z,2116.00
2019-04-29T04:37:54.037Z,2144.00
2019-04-29T04:38:54.170Z,2180.00
2019-04-29T04:39:54.319Z,2228.00
2019-04-29T04:40:54.464Z,2280.00
2019-04-29T04:41:54.607Z,2328.00
2019-04-29T04:42:54.759Z,2372.00
2019-04-29T04:43:55.023Z,2416.00
2019-04-29T04:44:55.178Z,2456.00
2019-04-29T04:45:55.329Z,2488.00
2019-04-29T04:46:55.481Z,2512.00
2019-04-29T04:47:55.652Z,2548.00
2019-04-29T04:48:55.783Z,2592.00
2019-04-29T04:49:55.920Z,2652.00
2019-04-29T04:50:56.061Z,2728.00
2019-04-29T04:51:57.006Z,2816.00
2019-04-29T04:52:56.525Z,2932.00
2019-04-29T04:53:56.548Z,3068.00
2019-04-29T04:54:56.686Z,3216.00
2019-04-29T04:55:56.844Z,3380.00
2019-04-29T04:56:56.950Z,3560.00
2019-04-29T04:57:57.081Z,3732.00
2019-04-29T04:58:57.302Z,3900.00
2019-04-29T04:59:57.437Z,4060.00
2019-04-29T05:00:57.565Z,4220.00
2019-04-29T05:01:57.711Z,4376.00
2019-04-29T05:02:57.852Z,4520.00
2019-04-29T05:03:58.000Z,4652.00
2019-04-29T05:04:59.010Z,4760.00
2019-04-29T05:05:58.358Z,4864.00
2019-04-29T05:06:59.007Z,4944.00
2019-04-29T05:07:58.595Z,4968.00
2019-04-29T05:08:59.018Z,4972.00
2019-04-29T05:09:59.500Z,4984.00
2019-04-29T05:10:59.097Z,5008.00
2019-04-29T05:11:59.338Z,5080.00
2019-04-29T05:12:59.450Z,5204.00
2019-04-29T05:13:59.715Z,5348.00
2019-04-29T05:14:59.898Z,5532.00
2019-04-29T05:16:00.118Z,5708.00
2019-04-29T05:17:00.350Z,5892.00
2019-04-29T05:18:00.571Z,6120.00
2019-04-29T05:19:00.809Z,6364.00
2019-04-29T05:20:01.519Z,6640.00
2019-04-29T05:21:01.212Z,6912.00
2019-04-29T05:22:01.429Z,7152.00
2019-04-29T05:23:02.513Z,7472.00
2019-04-29T05:24:01.841Z,7884.00
2019-04-29T05:25:02.086Z,8616.00
2019-04-29T05:26:02.249Z,9252.00
2019-04-29T05:27:02.364Z,9304.00
2019-04-29T05:28:02.540Z,9500.00
2019-04-29T05:29:02.648Z,9580.00
2019-04-29T05:30:02.890Z,9912.00
2019-04-29T05:31:03.056Z,10292.00
2019-04-29T05:32:03.191Z,10708.00
2019-04-29T05:33:03.331Z,11508.00
2019-04-29T05:34:03.574Z,12332.00
2019-04-29T05:35:03.709Z,14024.00
2019-04-29T05:36:04.018Z,16672.00
2019-04-29T05:37:04.155Z,18560.00
2019-04-29T05:38:04.261Z,21024.00
2019-04-29T05:39:04.488Z,22784.00
2019-04-29T05:40:05.542Z,26304.00
2019-04-29T05:41:04.891Z,26400.00
2019-04-29T05:42:07.643Z,29888.00
2019-04-29T05:43:07.243Z,29408.00
2019-04-29T05:44:05.456Z,34432.00
2019-04-29T05:45:06.040Z,33056.00
2019-04-29T05:46:07.502Z,22272.00
2019-04-29T05:47:07.026Z,24608.00
2019-04-29T05:48:06.167Z,26912.00
2019-04-29T05:49:07.144Z,30592.00
2019-04-29T05:50:07.501Z,38976.00
2019-04-29T05:51:06.748Z,40160.00
2019-04-29T05:52:06.904Z,43424.00
2019-04-29T05:53:11.167Z,44896.00
2019-04-29T05:54:09.009Z,30720.00
2019-04-29T05:55:09.533Z,37312.00
2019-04-29T05:56:09.684Z,39520.00
2019-04-29T05:57:08.020Z,42048.00
2019-04-29T05:58:08.042Z,22880.00
2019-04-29T05:59:08.423Z,18720.00
2019-04-29T06:00:09.352Z,19840.00
2019-04-29T06:01:08.576Z,28512.00
2019-04-29T06:02:08.742Z,28800.00
2019-04-29T06:03:08.879Z,26656.00
2019-04-29T06:04:11.468Z,30592.00
2019-04-29T06:05:11.283Z,31712.00
2019-04-29T06:06:12.175Z,28672.00
2019-04-29T06:07:09.636Z,33344.00
2019-04-29T06:08:09.772Z,30304.00
2019-04-29T06:09:11.751Z,39936.00
2019-04-29T06:10:13.006Z,37152.00
2019-04-29T06:11:10.354Z,29024.00
2019-04-29T06:12:10.507Z,29600.00
2019-04-29T06:13:10.650Z,33568.00
2019-04-29T06:14:10.799Z,19008.00
2019-04-29T06:15:10.956Z,16864.00
2019-04-29T06:16:11.121Z,16416.00
2019-04-29T06:17:11.283Z,17152.00
2019-04-29T06:18:12.013Z,15692.00
2019-04-29T06:19:12.516Z,15492.00
2019-04-29T06:20:13.040Z,17408.00
2019-04-29T06:21:14.039Z,14720.00
2019-04-29T06:22:12.275Z,14552.00
2019-04-29T06:23:12.403Z,14840.00
2019-04-29T06:24:12.654Z,14976.00
2019-04-29T06:25:12.777Z,15096.00
2019-04-29T06:26:13.919Z,16064.00
2019-04-29T06:27:13.159Z,16576.00
2019-04-29T06:28:13.301Z,18912.00
2019-04-29T06:29:13.545Z,19936.00
2019-04-29T06:30:14.038Z,18560.00
2019-04-29T06:31:13.808Z,17760.00
2019-04-29T06:32:13.960Z,17376.00
2019-04-29T06:33:14.099Z,16928.00
2019-04-29T06:34:14.236Z,16864.00
2019-04-29T06:35:15.335Z,17696.00
2019-04-29T06:36:14.564Z,16768.00
2019-04-29T06:37:14.718Z,17184.00
2019-04-29T06:38:14.929Z,20992.00
2019-04-29T06:39:15.078Z,17344.00
2019-04-29T06:40:15.543Z,18208.00
2019-04-29T06:41:15.405Z,18720.00
2019-04-29T06:42:19.452Z,17312.00
2019-04-29T06:43:17.100Z,20352.00
2019-04-29T06:44:17.038Z,18048.00
2019-04-29T06:45:16.039Z,18112.00
2019-04-29T06:46:16.186Z,19008.00
2019-04-29T06:47:17.065Z,20352.00
2019-04-29T06:48:17.595Z,22720.00
2019-04-29T06:49:16.696Z,36576.00
2019-04-29T06:50:16.863Z,42752.00
2019-04-29T06:51:17.016Z,23392.00
2019-04-29T06:52:17.176Z,24352.00
2019-04-29T06:53:21.257Z,28960.00
2019-04-29T06:54:19.469Z,32224.00
2019-04-29T06:55:17.568Z,29440.00
2019-04-29T06:56:17.759Z,27680.00
2019-04-29T06:57:17.905Z,30624.00
2019-04-29T06:58:18.078Z,45536.00
2019-04-29T06:59:18.236Z,38112.00
2019-04-29T07:00:22.233Z,68608.00
2019-04-29T07:01:20.038Z,71520.00
2019-04-29T07:02:18.654Z,69856.00
2019-04-29T07:03:20.892Z,71488.00
2019-04-29T07:04:21.044Z,79360.00
2019-04-29T07:05:19.256Z,77152.00
2019-04-29T07:06:19.391Z,83680.00
2019-04-29T07:07:19.570Z,47296.00
2019-04-29T07:08:20.525Z,52896.00
2019-04-29T07:09:19.879Z,43744.00
2019-04-29T07:10:21.762Z,51840.00
2019-04-29T07:11:21.286Z,79648.00
2019-04-29T07:12:20.387Z,61504.00
2019-04-29T07:13:22.842Z,87008.00
2019-04-29T07:14:21.738Z,88448.00
2019-04-29T07:15:20.976Z,83360.00
2019-04-29T07:16:26.886Z,92864.00
2019-04-29T07:17:22.401Z,93344.00
2019-04-29T07:18:22.026Z,94752.00
2019-04-29T07:19:22.218Z,92864.00
2019-04-29T07:20:22.849Z,87712.00
2019-04-29T07:21:22.015Z,84160.00
2019-04-29T07:22:25.856Z,84800.00
2019-04-29T07:23:24.287Z,81600.00
2019-04-29T07:24:22.516Z,81472.00
2019-04-29T07:25:24.631Z,81600.00
2019-04-29T07:26:25.533Z,82560.00
2019-04-29T07:27:22.988Z,81632.00
2019-04-29T07:28:23.182Z,80128.00
2019-04-29T07:29:29.404Z,79584.00
2019-04-29T07:30:25.479Z,76896.00
2019-04-29T07:31:23.655Z,76896.00
2019-04-29T07:32:23.816Z,79168.00
2019-04-29T07:33:24.489Z,80448.00
2019-04-29T07:34:28.930Z,77760.00
2019-04-29T07:35:25.355Z,76768.00
2019-04-29T07:36:24.502Z,74816.00
2019-04-29T07:37:24.667Z,75744.00
2019-04-29T07:38:24.812Z,66688.00
2019-04-29T07:39:26.706Z,71904.00
2019-04-29T07:40:27.198Z,77376.00
2019-04-29T07:41:25.337Z,76256.00
2019-04-29T07:42:31.909Z,77056.00
2019-04-29T07:43:26.601Z,75872.00
2019-04-29T07:44:29.881Z,72256.00
2019-04-29T07:45:28.267Z,76864.00
2019-04-29T07:46:27.332Z,77216.00
2019-04-29T07:47:29.441Z,79008.00
2019-04-29T07:48:27.647Z,79680.00
2019-04-29T07:49:26.792Z,79072.00
2019-04-29T07:50:28.519Z,80896.00
2019-04-29T07:51:27.152Z,82080.00
2019-04-29T07:52:27.347Z,82848.00
2019-04-29T07:53:36.720Z,84576.00
2019-04-29T07:54:29.671Z,85440.00
2019-04-29T07:55:30.709Z,85120.00
2019-04-29T07:56:29.177Z,80992.00
2019-04-29T07:57:29.050Z,82880.00
2019-04-29T07:58:28.519Z,84704.00
2019-04-29T07:59:29.563Z,86592.00
2019-04-29T08:00:29.550Z,88960.00
2019-04-29T08:01:28.974Z,91680.00
2019-04-29T08:02:29.136Z,90528.00
2019-04-29T08:03:29.310Z,91168.00
2019-04-29T08:04:29.452Z,91232.00
2019-04-29T08:05:29.599Z,89920.00
2019-04-29T08:06:29.782Z,86944.00
2019-04-29T08:07:29.964Z,82944.00
2019-04-29T08:08:30.155Z,81760.00
2019-04-29T08:09:30.319Z,82240.00
2019-04-29T08:10:30.482Z,87040.00
2019-04-29T08:11:30.631Z,85952.00
2019-04-29T08:12:30.821Z,84608.00
2019-04-29T08:13:30.956Z,80640.00
2019-04-29T08:14:31.116Z,77472.00
2019-04-29T08:15:32.088Z,82464.00
2019-04-29T08:16:32.447Z,84000.00
2019-04-29T08:17:31.690Z,16992.00
2019-04-29T08:18:31.823Z,45504.00
2019-04-29T08:19:32.554Z,83904.00
2019-04-29T08:20:35.447Z,76640.00
2019-04-29T08:21:34.052Z,78592.00
2019-04-29T08:22:32.553Z,79680.00
2019-04-29T08:23:40.981Z,79488.00
2019-04-29T08:24:33.931Z,76640.00
2019-04-29T08:25:34.047Z,83904.00
2019-04-29T08:26:37.460Z,85280.00
2019-04-29T08:27:40.640Z,78720.00
2019-04-29T08:28:35.850Z,82496.00
2019-04-29T08:29:35.698Z,78592.00
2019-04-29T08:30:35.119Z,79712.00
2019-04-29T08:31:34.346Z,77856.00
2019-04-29T08:32:36.377Z,79136.00
2019-04-29T08:33:36.068Z,76224.00
2019-04-29T08:34:34.794Z,77024.00
2019-04-29T08:35:36.783Z,84352.00
2019-04-29T08:36:36.085Z,81184.00
2019-04-29T08:37:35.310Z,81152.00
2019-04-29T08:38:35.451Z,82016.00
2019-04-29T08:39:35.603Z,80224.00
2019-04-29T08:40:35.764Z,74592.00
2019-04-29T08:41:36.560Z,81248.00
2019-04-29T08:42:37.345Z,63040.00
2019-04-29T08:43:37.213Z,80384.00
2019-04-29T08:44:37.063Z,75648.00
2019-04-29T08:45:38.985Z,40992.00
2019-04-29T08:46:37.813Z,35776.00
2019-04-29T08:47:36.951Z,52576.00
2019-04-29T08:48:37.109Z,78272.00
2019-04-29T08:49:38.059Z,75328.00
2019-04-29T08:50:37.472Z,74752.00
2019-04-29T08:51:38.607Z,73696.00
2019-04-29T08:52:37.855Z,51072.00
2019-04-29T08:53:38.023Z,77920.00
2019-04-29T08:54:38.194Z,17248.00
2019-04-29T08:55:38.385Z,75424.00
2019-04-29T08:56:42.533Z,73888.00
2019-04-29T08:57:39.748Z,71584.00
2019-04-29T08:58:39.467Z,60448.00
2019-04-29T08:59:40.108Z,61152.00
2019-04-29T09:00:39.350Z,43104.00
2019-04-29T09:01:39.511Z,38336.00
2019-04-29T09:02:41.330Z,39008.00
2019-04-29T09:03:41.847Z,32064.00
2019-04-29T09:04:52.814Z,39872.00
2019-04-29T09:05:46.037Z,39520.00
2019-04-29T09:06:42.368Z,39328.00
2019-04-29T09:07:41.090Z,41088.00
2019-04-29T09:08:54.188Z,42688.00
2019-04-29T09:09:43.579Z,41312.00
2019-04-29T09:10:41.189Z,29888.00
2019-04-29T09:11:43.705Z,37280.00
2019-04-29T09:12:43.626Z,40256.00
2019-04-29T09:13:41.735Z,40800.00
2019-04-29T09:14:41.890Z,40736.00
2019-04-29T09:15:42.570Z,38912.00
2019-04-29T09:16:42.230Z,23808.00
2019-04-29T09:17:42.390Z,15732.00
2019-04-29T09:18:42.532Z,13716.00
2019-04-29T09:19:42.677Z,12076.00
2019-04-29T09:20:42.814Z,10412.00
2019-04-29T09:21:42.972Z,8888.00
2019-04-29T09:22:43.143Z,7780.00
2019-04-29T09:23:43.321Z,7452.00
2019-04-29T09:24:47.799Z,7760.00
2019-04-29T09:25:44.722Z,9856.00
2019-04-29T09:26:43.858Z,23456.00
2019-04-29T09:27:45.002Z,30048.00
2019-04-29T09:28:45.596Z,31936.00
2019-04-29T09:29:46.402Z,30912.00
2019-04-29T09:30:45.543Z,30080.00
2019-04-29T09:31:46.734Z,30336.00
2019-04-29T09:32:45.836Z,32608.00
2019-04-29T09:33:49.268Z,33792.00
2019-04-29T09:34:46.095Z,29920.00
2019-04-29T09:35:46.070Z,16620.00
2019-04-29T09:36:48.267Z,17792.00
2019-04-29T09:37:46.679Z,16680.00
2019-04-29T09:38:45.817Z,30848.00
2019-04-29T09:39:45.988Z,22208.00
2019-04-29T09:40:46.161Z,29600.00
2019-04-29T09:41:47.102Z,18016.00
2019-04-29T09:42:50.339Z,13576.00
2019-04-29T09:43:48.659Z,14828.00
2019-04-29T09:44:46.892Z,13692.00
2019-04-29T09:45:47.064Z,12320.00
2019-04-29T09:46:47.611Z,10884.00
2019-04-29T09:47:48.082Z,10676.00
2019-04-29T09:48:47.731Z,12040.00
2019-04-29T09:49:47.930Z,13200.00
2019-04-29T09:50:48.103Z,43584.00
2019-04-29T09:51:48.267Z,46656.00
2019-04-29T09:52:48.449Z,47200.00
2019-04-29T09:53:48.652Z,15652.00
2019-04-29T09:54:48.830Z,54688.00
2019-04-29T09:55:49.010Z,46304.00
2019-04-29T09:56:49.196Z,16504.00
2019-04-29T09:57:49.386Z,14948.00
2019-04-29T09:58:49.551Z,13808.00
2019-04-29T09:59:49.726Z,12668.00
2019-04-29T10:00:49.915Z,12420.00
2019-04-29T10:01:50.411Z,13168.00
2019-04-29T10:02:51.617Z,29152.00
2019-04-29T10:03:50.505Z,12348.00
2019-04-29T10:04:56.645Z,11316.00
2019-04-29T10:05:52.847Z,11608.00
2019-04-29T10:06:51.084Z,9672.00
2019-04-29T10:07:51.265Z,9672.00
2019-04-29T10:08:51.481Z,11400.00
2019-04-29T10:09:57.326Z,19840.00
2019-04-29T10:10:53.758Z,12440.00
2019-04-29T10:11:51.987Z,11136.00
2019-04-29T10:12:53.962Z,11300.00
2019-04-29T10:13:53.275Z,10632.00
2019-04-29T10:14:52.543Z,11340.00
2019-04-29T10:15:55.927Z,20416.00
2019-04-29T10:16:53.791Z,17120.00
2019-04-29T10:17:55.717Z,14408.00
2019-04-29T10:18:54.167Z,16960.00
2019-04-29T10:19:53.432Z,19200.00
2019-04-29T10:20:53.576Z,11032.00
2019-04-29T10:21:53.752Z,9688.00
2019-04-29T10:22:54.984Z,9688.00
2019-04-29T10:23:54.130Z,10428.00
2019-04-29T10:24:54.283Z,11752.00
2019-04-29T10:25:54.424Z,12932.00
2019-04-29T10:26:54.581Z,16256.00
2019-04-29T10:27:54.715Z,10984.00
2019-04-29T10:28:54.865Z,9272.00
2019-04-29T10:29:55.590Z,8472.00
2019-04-29T10:30:56.262Z,8216.00
2019-04-29T10:31:55.511Z,7636.00
2019-04-29T10:32:55.654Z,7384.00
2019-04-29T10:33:56.548Z,7408.00
2019-04-29T10:34:55.988Z,7616.00
2019-04-29T10:35:56.183Z,8228.00
2019-04-29T10:36:56.596Z,9032.00
2019-04-29T10:37:56.460Z,10552.00
2019-04-29T10:38:56.600Z,15768.00
2019-04-29T10:40:10.175Z,11900.00
2019-04-29T10:41:00.700Z,11376.00
2019-04-29T10:41:58.226Z,10272.00
2019-04-29T10:42:57.340Z,9224.00
2019-04-29T10:43:57.494Z,9024.00
2019-04-29T10:44:57.640Z,9276.00
2019-04-29T10:45:58.771Z,9744.00
2019-04-29T10:46:58.001Z,10648.00
2019-04-29T10:47:58.174Z,11784.00
2019-04-29T10:48:58.992Z,13704.00
2019-04-29T10:49:59.441Z,14692.00
2019-04-29T10:50:58.678Z,16040.00
2019-04-29T10:52:02.890Z,16928.00
2019-04-29T10:53:00.034Z,16256.00
2019-04-29T10:53:59.150Z,15112.00
2019-04-29T10:54:59.313Z,10736.00
2019-04-29T10:56:00.825Z,8300.00
2019-04-29T10:57:01.704Z,7404.00
2019-04-29T10:57:59.856Z,6668.00
2019-04-29T10:59:00.068Z,5780.00
2019-04-29T11:00:01.138Z,5072.00
2019-04-29T11:01:02.104Z,4704.00
2019-04-29T11:02:01.857Z,4720.00
2019-04-29T11:03:01.781Z,5180.00
2019-04-29T11:04:02.694Z,5852.00
2019-04-29T11:05:02.708Z,6528.00
2019-04-29T11:06:02.253Z,7260.00
2019-04-29T11:07:13.630Z,8100.00
2019-04-29T11:08:04.369Z,9064.00
2019-04-29T11:09:01.798Z,10148.00
2019-04-29T11:10:01.976Z,11344.00
2019-04-29T11:11:02.771Z,12520.00
2019-04-29T11:12:03.311Z,13704.00
2019-04-29T11:13:02.434Z,14536.00
2019-04-29T11:14:03.175Z,15076.00
2019-04-29T11:15:02.764Z,15312.00
2019-04-29T11:16:03.621Z,15568.00
2019-04-29T11:17:03.126Z,15888.00
2019-04-29T11:18:03.745Z,16416.00
2019-04-29T11:19:05.584Z,16384.00
2019-04-29T11:20:04.681Z,15900.00
2019-04-29T11:21:03.929Z,15456.00
2019-04-29T11:22:04.090Z,14944.00
2019-04-29T11:23:04.244Z,14436.00
2019-04-29T11:24:04.426Z,13804.00
2019-04-29T11:25:04.602Z,13024.00
2019-04-29T11:26:04.740Z,12108.00
2019-04-29T11:27:11.463Z,11372.00
2019-04-29T11:28:07.141Z,10756.00
2019-04-29T11:29:09.062Z,10772.00
2019-04-29T11:30:06.564Z,11240.00
2019-04-29T11:31:09.626Z,11968.00
2019-04-29T11:32:07.011Z,12544.00
2019-04-29T11:33:06.305Z,12836.00
2019-04-29T11:34:07.476Z,12824.00
2019-04-29T11:35:06.570Z,12900.00
2019-04-29T11:36:07.612Z,13300.00
2019-04-29T11:37:06.950Z,13264.00
2019-04-29T11:38:07.081Z,13264.00
2019-04-29T11:39:09.159Z,13196.00
2019-04-29T11:40:09.367Z,13136.00
2019-04-29T11:41:07.618Z,13348.00
2019-04-29T11:42:07.812Z,13624.00
2019-04-29T11:43:10.801Z,13500.00
2019-04-29T11:44:10.123Z,13116.00
2019-04-29T11:45:08.230Z,12596.00
2019-04-29T11:46:09.920Z,12160.00
2019-04-29T11:47:10.618Z,11996.00
2019-04-29T11:48:08.737Z,11984.00
2019-04-29T11:49:08.942Z,12000.00
2019-04-29T11:50:11.863Z,11832.00
2019-04-29T11:51:10.314Z,11452.00
2019-04-29T11:52:10.194Z,11080.00
2019-04-29T11:53:10.783Z,10688.00
2019-04-29T11:54:12.800Z,10608.00
2019-04-29T11:55:13.961Z,10816.00
2019-04-29T11:56:12.122Z,11400.00
2019-04-29T11:57:10.621Z,12032.00
2019-04-29T11:58:10.769Z,12516.00
2019-04-29T11:59:11.623Z,12428.00
2019-04-29T12:00:11.157Z,11924.00
2019-04-29T12:01:12.117Z,11448.00
2019-04-29T12:02:12.119Z,11392.00
2019-04-29T12:03:14.426Z,11588.00
2019-04-29T12:04:13.825Z,11656.00
2019-04-29T12:05:12.124Z,11376.00
2019-04-29T12:06:16.242Z,10808.00
2019-04-29T12:07:13.261Z,10292.00
2019-04-29T12:08:16.942Z,10312.00
2019-04-29T12:09:14.613Z,10472.00
2019-04-29T12:10:13.128Z,10744.00
2019-04-29T12:11:13.017Z,10928.00
2019-04-29T12:12:14.567Z,11260.00
2019-04-29T12:13:13.349Z,11584.00
2019-04-29T12:14:13.489Z,12172.00
2019-04-29T12:15:15.367Z,12884.00
2019-04-29T12:16:13.977Z,13376.00
2019-04-29T12:17:14.109Z,13268.00
2019-04-29T12:18:14.252Z,13284.00